Time;durP1;ratioP1;P1;durP2;ratioP2;P2;SDS_P1;SDS_P2;PMS_P1;PMS_P2;Temp;Humidity;BMP_temperature;BMP_pressure;BME280_temperature;BME280_humidity;BME280_pressure;Samples;Min_cycle;Max_cycle;Signal;HPM_P1;HPM_P2
2021/12/27 00:02:23;;;;;;;3.77;2.97;;;-5.90;99.90;;;;;;5114076;28;20413;-81
2021/12/27 00:04:48;;;;;;;4.90;3.63;;;-5.90;99.90;;;;;;5113721;28;20540;-81
2021/12/27 00:07:15;;;;;;;10.77;5.17;;;-5.90;99.90;;;;;;5113945;28;20216;-81
2021/12/27 00:09:41;;;;;;;2.53;2.10;;;-5.90;1.00;;;;;;5095746;28;20167;-81
2021/12/27 00:12:07;;;;;;;4.53;3.60;;;-5.90;1.00;;;;;;5114000;28;20428;-81
2021/12/27 00:14:33;;;;;;;5.77;4.03;;;-6.00;99.90;;;;;;5113985;28;20466;-82
2021/12/27 00:16:59;;;;;;;6.57;4.90;;;-6.10;1.00;;;;;;5113912;28;20421;-82
2021/12/27 00:19:24;;;;;;;13.47;4.60;;;-6.00;1.00;;;;;;5113461;28;20207;-82
2021/12/27 00:21:50;;;;;;;4.80;3.97;;;-6.00;99.90;;;;;;5113756;28;20468;-82
2021/12/27 00:24:16;;;;;;;7.07;4.67;;;-5.90;99.90;;;;;;5113791;28;20179;-82
2021/12/27 00:26:41;;;;;;;4.80;4.20;;;-5.80;1.00;;;;;;5113856;28;20611;-82
2021/12/27 00:29:07;;;;;;;3.67;2.93;;;-5.70;33.40;;;;;;5113522;28;20172;-81
2021/12/27 00:31:33;;;;;;;6.43;4.33;;;-5.70;1.00;;;;;;5114497;28;20172;-82
2021/12/27 00:33:58;;;;;;;12.87;5.27;;;-5.60;99.90;;;;;;5113690;28;20193;-87
2021/12/27 00:36:24;;;;;;;8.57;4.30;;;-5.60;1.00;;;;;;5114319;28;20175;-87
2021/12/27 00:38:49;;;;;;;5.47;4.77;;;-5.50;99.90;;;;;;5113884;28;20219;-87
2021/12/27 00:41:17;;;;;;;9.57;4.97;;;-5.50;99.90;;;;;;5113956;28;20729;-86
2021/12/27 00:43:42;;;;;;;4.80;3.80;;;-5.50;99.90;;;;;;5096340;28;20433;-85
2021/12/27 00:46:08;;;;;;;8.90;3.70;;;-5.50;1.00;;;;;;5095837;28;20921;-85
2021/12/27 00:48:34;;;;;;;5.10;4.70;;;-5.50;33.10;;;;;;5113869;28;20657;-86
2021/12/27 00:50:59;;;;;;;4.33;4.03;;;-5.60;99.90;;;;;;5114236;28;20160;-86
2021/12/27 00:53:25;;;;;;;8.87;5.20;;;-5.60;16.00;;;;;;5096505;28;20587;-87
2021/12/27 00:55:50;;;;;;;10.57;5.63;;;-5.60;99.90;;;;;;5096346;28;20167;-85
2021/12/27 00:58:16;;;;;;;6.30;4.90;;;-5.70;1.00;;;;;;5095936;28;20242;-86
2021/12/27 01:00:42;;;;;;;6.83;5.93;;;-5.80;1.00;;;;;;5114589;28;20199;-86
2021/12/27 01:03:08;;;;;;;7.43;4.90;;;-5.70;1.00;;;;;;5115376;28;20164;-85
2021/12/27 01:05:34;;;;;;;4.93;4.37;;;-5.80;1.00;;;;;;5096327;28;20309;-84
2021/12/27 01:08:00;;;;;;;9.53;6.33;;;-5.80;99.90;;;;;;5095879;28;20508;-84
2021/12/27 01:15:45;;;;;;;7.63;5.33;;;-5.50;1.00;;;;;;5113350;28;20439;-85
2021/12/27 01:18:11;;;;;;;10.17;6.17;;;-5.40;99.90;;;;;;5094779;28;20417;-84
2021/12/27 01:20:36;;;;;;;9.27;6.50;;;-5.30;1.00;;;;;;5095135;28;20429;-85
2021/12/27 01:23:03;;;;;;;9.87;6.70;;;-5.20;1.00;;;;;;5095097;28;20164;-86
2021/12/27 01:25:28;;;;;;;7.20;5.93;;;-5.20;99.90;;;;;;5113301;28;20168;-86
2021/12/27 01:27:54;;;;;;;7.30;3.40;;;-5.10;91.50;;;;;;5113282;28;20416;-85
2021/12/27 01:30:21;;;;;;;5.57;4.97;;;-5.10;99.90;;;;;;5113306;28;20177;-86
2021/12/27 01:32:52;;;;;;;8.73;4.70;;;-5.00;99.90;;;;;;5094626;28;20175;-86
2021/12/27 01:35:19;;;;;;;13.20;5.73;;;-5.00;1.00;;;;;;5113372;28;20435;-86
2021/12/27 01:37:45;;;;;;;11.60;5.43;;;-5.00;1.00;;;;;;5112976;28;20544;-86
2021/12/27 01:40:13;;;;;;;7.57;3.93;;;-4.90;99.90;;;;;;5113131;28;20568;-86
2021/12/27 01:43:02;;;;;;;6.63;5.10;;;-4.90;1.00;;;;;;5115916;28;20288;-86
2021/12/27 01:45:28;;;;;;;9.13;5.93;;;-4.90;99.90;;;;;;5098563;28;20478;-86
2021/12/27 01:47:54;;;;;;;13.83;6.73;;;-4.90;1.00;;;;;;5116562;28;20413;-86
2021/12/27 01:50:20;;;;;;;14.47;8.00;;;-4.90;99.90;;;;;;5116841;28;20412;-87
2021/12/27 01:52:45;;;;;;;7.80;6.73;;;-4.80;1.00;;;;;;5098703;28;20167;-87
2021/12/27 01:55:11;;;;;;;7.20;6.50;;;-4.80;1.00;;;;;;5116768;28;20179;-86
2021/12/27 01:57:37;;;;;;;13.53;6.83;;;-4.90;3.50;;;;;;5098432;28;20258;-85
2021/12/27 02:00:05;;;;;;;7.27;5.20;;;-4.80;1.00;;;;;;5116546;28;20211;-86
2021/12/27 02:02:31;;;;;;;13.93;6.80;;;-4.80;99.90;;;;;;5098206;28;20414;-86
2021/12/27 02:04:57;;;;;;;10.10;5.90;;;-4.90;1.00;;;;;;5097959;28;20495;-86
2021/12/27 02:07:22;;;;;;;10.50;7.10;;;-4.90;1.00;;;;;;5116467;28;20908;-86
2021/12/27 02:10:00;;;;;;;7.87;5.87;;;-4.90;99.90;;;;;;5098168;28;20233;-86
2021/12/27 02:12:26;;;;;;;10.87;5.53;;;-4.90;1.00;;;;;;5098143;28;20203;-86
2021/12/27 02:14:52;;;;;;;12.27;5.87;;;-4.90;1.00;;;;;;5116356;28;20847;-86
2021/12/27 02:17:18;;;;;;;11.47;6.43;;;-4.80;99.90;;;;;;5116257;28;20164;-86
2021/12/27 02:19:48;;;;;;;10.27;6.67;;;-4.80;1.00;;;;;;5115878;28;20260;-86
2021/12/27 02:22:14;;;;;;;9.63;7.17;;;-4.80;1.00;;;;;;5116269;28;20419;-87
2021/12/27 02:24:40;;;;;;;12.20;6.10;;;-4.80;1.00;;;;;;5116595;28;20406;-87
2021/12/27 02:27:06;;;;;;;8.97;6.50;;;-4.80;1.00;;;;;;5098085;28;20164;-87
2021/12/27 02:29:32;;;;;;;10.73;7.40;;;-4.80;80.30;;;;;;5097926;28;20520;-87
2021/12/27 02:31:58;;;;;;;6.30;5.67;;;-4.90;32.90;;;;;;5097750;28;20457;-87
2021/12/27 02:34:24;;;;;;;8.73;5.50;;;-4.90;96.20;;;;;;5115801;28;20806;-87
2021/12/27 02:36:50;;;;;;;12.07;7.17;;;-4.90;99.90;;;;;;5116041;28;20401;-87
2021/12/27 02:39:16;;;;;;;13.17;7.83;;;-5.00;99.90;;;;;;5097296;28;20235;-86
2021/12/27 02:41:42;;;;;;;9.17;6.33;;;-5.00;1.00;;;;;;5097434;28;20179;-87
2021/12/27 02:44:07;;;;;;;7.27;5.07;;;-5.10;1.00;;;;;;5115713;28;20429;-86
2021/12/27 02:46:34;;;;;;;15.93;6.70;;;-5.10;1.00;;;;;;5115840;28;20208;-87
2021/12/27 02:48:59;;;;;;;9.60;5.70;;;-5.20;1.00;;;;;;5115454;28;20164;-87
2021/12/27 02:51:25;;;;;;;12.53;8.60;;;-5.20;1.00;;;;;;5115788;28;21034;-87
2021/12/27 02:53:50;;;;;;;11.67;6.40;;;-5.20;1.00;;;;;;5115401;28;20174;-87
2021/12/27 02:56:17;;;;;;;14.57;8.70;;;-5.20;99.90;;;;;;5115632;28;20175;-87
2021/12/27 02:58:44;;;;;;;13.33;5.93;;;-5.20;1.00;;;;;;5097206;28;20646;-86
2021/12/27 03:01:13;;;;;;;10.80;7.60;;;-5.20;1.00;;;;;;5097204;28;20425;-86
2021/12/27 03:03:39;;;;;;;12.97;5.33;;;-5.10;1.00;;;;;;5096879;28;20418;-86
2021/12/27 03:06:06;;;;;;;9.57;7.30;;;-5.10;99.90;;;;;;5115575;28;20462;-87
2021/12/27 03:08:32;;;;;;;12.93;5.40;;;-5.10;99.90;;;;;;5115433;28;20167;-86
2021/12/27 03:10:59;;;;;;;12.00;7.13;;;-5.00;99.90;;;;;;5115310;28;20451;-87
2021/12/27 03:13:31;;;;;;;7.33;5.27;;;-5.00;99.90;;;;;;5096988;28;20418;-86
2021/12/27 03:16:05;;;;;;;12.57;4.97;;;-5.00;1.00;;;;;;5115260;28;20893;-86
2021/12/27 03:18:36;;;;;;;9.73;6.93;;;-5.00;99.90;;;;;;5114781;28;20490;-86
2021/12/27 03:21:04;;;;;;;11.13;6.50;;;-4.90;99.90;;;;;;5096757;28;20430;-86
2021/12/27 03:23:30;;;;;;;7.10;5.40;;;-4.90;1.00;;;;;;5096659;28;20417;-85
2021/12/27 03:25:55;;;;;;;8.33;6.40;;;-4.90;1.00;;;;;;5096680;28;20420;-86
2021/12/27 03:28:22;;;;;;;13.67;6.70;;;-4.80;99.90;;;;;;5096755;28;20429;-85
2021/12/27 03:30:48;;;;;;;8.10;6.37;;;-4.80;1.00;;;;;;5114943;28;20225;-86
2021/12/27 03:33:15;;;;;;;10.30;7.67;;;-4.80;99.90;;;;;;5094962;28;21007;-86
2021/12/27 03:35:51;;;;;;;11.80;8.33;;;-4.80;1.00;;;;;;5113464;28;20178;-85
2021/12/27 03:38:17;;;;;;;13.30;8.40;;;-4.70;99.90;;;;;;5091842;28;20982;-85
2021/12/27 03:40:44;;;;;;;9.50;4.47;;;-4.80;99.90;;;;;;5093852;28;20422;-86
2021/12/27 03:43:10;;;;;;;10.70;6.50;;;-4.80;99.90;;;;;;5094206;28;20414;-85
2021/12/27 03:45:38;;;;;;;10.77;6.37;;;-4.80;99.90;;;;;;5094230;28;20740;-85
2021/12/27 03:48:06;;;;;;;12.53;7.93;;;-4.80;99.90;;;;;;5092505;28;20173;-86
2021/12/27 03:50:32;;;;;;;8.17;5.70;;;-4.70;1.00;;;;;;5094203;28;20421;-85
2021/12/27 03:52:58;;;;;;;11.30;6.43;;;-4.70;99.90;;;;;;5092812;28;20418;-85
2021/12/27 03:55:25;;;;;;;8.57;5.67;;;-4.70;99.90;;;;;;5093941;28;20593;-85
2021/12/27 03:57:53;;;;;;;10.93;6.07;;;-4.60;99.90;;;;;;5093698;28;20411;-85
2021/12/27 04:02:52;;;;;;;13.37;7.57;;;-4.50;99.90;;;;;;5092408;28;20402;-85
2021/12/27 04:05:19;;;;;;;10.00;6.77;;;-4.50;99.90;;;;;;5091961;28;20502;-86
2021/12/27 04:07:48;;;;;;;16.33;9.00;;;-4.40;99.90;;;;;;5093758;28;20418;-85
2021/12/27 04:10:15;;;;;;;15.07;8.23;;;-4.40;99.90;;;;;;5092517;28;20501;-85
2021/12/27 04:12:40;;;;;;;9.30;6.93;;;-4.30;59.30;;;;;;5093701;28;20418;-85
2021/12/27 04:15:09;;;;;;;10.70;7.00;;;-4.30;1.00;;;;;;5093740;28;20411;-85
2021/12/27 04:17:35;;;;;;;16.87;9.77;;;-4.30;1.00;;;;;;5093397;28;20180;-85
2021/12/27 04:20:02;;;;;;;12.90;7.87;;;-4.20;1.00;;;;;;5093569;28;20474;-86
2021/12/27 04:22:27;;;;;;;10.23;4.00;;;-4.30;1.00;;;;;;5093605;28;20416;-86
2021/12/27 04:24:53;;;;;;;16.77;8.13;;;-4.30;1.00;;;;;;5093606;28;20505;-87
2021/12/27 04:27:20;;;;;;;10.93;7.80;;;-4.30;99.90;;;;;;5093594;28;20651;-86
2021/12/27 04:29:46;;;;;;;12.07;7.37;;;-4.30;99.90;;;;;;5093530;28;20166;-86
2021/12/27 04:32:11;;;;;;;18.10;8.80;;;-4.20;99.90;;;;;;5091947;28;20411;-87
2021/12/27 04:34:37;;;;;;;12.37;6.73;;;-4.20;99.90;;;;;;5092132;28;20765;-86
2021/12/27 04:37:03;;;;;;;12.00;9.03;;;-4.20;99.90;;;;;;5092074;28;20179;-86
2021/12/27 04:39:29;;;;;;;12.67;7.50;;;-4.20;99.90;;;;;;5113718;28;20207;-85
2021/12/27 04:41:55;;;;;;;14.60;8.97;;;-4.20;72.00;;;;;;5113486;28;20410;-85
2021/12/27 04:44:21;;;;;;;18.37;9.20;;;-4.10;1.00;;;;;;5113554;28;20174;-85
2021/12/27 04:46:47;;;;;;;12.43;8.50;;;-4.10;1.00;;;;;;5113588;28;20413;-85
2021/12/27 04:49:12;;;;;;;12.07;7.50;;;-4.10;1.00;;;;;;5113190;28;20179;-85
2021/12/27 04:51:38;;;;;;;12.50;6.67;;;-4.00;1.00;;;;;;5113509;28;20171;-85
2021/12/27 04:54:03;;;;;;;14.10;7.60;;;-4.00;1.00;;;;;;5095214;28;20175;-85
2021/12/27 04:56:29;;;;;;;15.03;8.83;;;-4.00;1.00;;;;;;5113468;28;20173;-85
2021/12/27 04:58:55;;;;;;;14.83;8.93;;;-4.00;1.00;;;;;;5113372;28;20207;-85
2021/12/27 05:01:22;;;;;;;18.37;8.83;;;-4.10;1.00;;;;;;5113471;28;20175;-86
2021/12/27 05:03:48;;;;;;;8.90;7.00;;;-4.00;1.00;;;;;;5113146;28;20202;-86
2021/12/27 05:06:14;;;;;;;19.73;8.30;;;-4.10;1.00;;;;;;5095173;28;20946;-85
2021/12/27 05:08:40;;;;;;;17.83;7.60;;;-4.10;99.90;;;;;;5095130;28;20671;-85
2021/12/27 05:11:07;;;;;;;16.93;8.60;;;-4.10;99.90;;;;;;5113423;28;20775;-86
2021/12/27 05:13:33;;;;;;;11.70;5.37;;;-4.10;99.90;;;;;;5113392;28;20778;-85
2021/12/27 05:16:00;;;;;;;14.37;9.23;;;-4.10;28.50;;;;;;5096915;28;20425;-85
2021/12/27 05:18:26;;;;;;;11.43;7.90;;;-4.10;99.90;;;;;;5098562;28;20984;-85
2021/12/27 05:20:51;;;;;;;14.13;6.63;;;-4.10;99.90;;;;;;5117306;28;20611;-85
2021/12/27 05:23:17;;;;;;;14.80;8.73;;;-4.10;99.90;;;;;;5099129;28;20664;-85
2021/12/27 05:25:43;;;;;;;9.57;7.20;;;-4.10;99.90;;;;;;5117254;28;20176;-86
2021/12/27 05:28:09;;;;;;;15.00;10.90;;;-4.10;99.90;;;;;;5117298;28;20620;-85
2021/12/27 05:30:35;;;;;;;15.27;9.60;;;-4.10;99.90;;;;;;5117293;28;20172;-86
2021/12/27 05:33:01;;;;;;;11.23;8.43;;;-4.00;99.90;;;;;;5116847;28;20471;-85
2021/12/27 05:35:27;;;;;;;14.60;9.23;;;-4.10;1.00;;;;;;5117116;28;20446;-85
2021/12/27 05:37:53;;;;;;;16.47;8.10;;;-4.00;99.90;;;;;;5116845;28;20227;-85
2021/12/27 05:40:22;;;;;;;10.73;6.10;;;-4.00;99.90;;;;;;5098613;28;21122;-85
2021/12/27 05:42:50;;;;;;;13.83;7.33;;;-4.00;99.90;;;;;;5116992;28;20204;-85
2021/12/27 05:45:15;;;;;;;14.80;8.73;;;-4.00;99.90;;;;;;5116858;28;20434;-85
2021/12/27 05:47:41;;;;;;;10.60;8.10;;;-4.00;99.90;;;;;;5098289;28;20413;-85
2021/12/27 05:50:08;;;;;;;8.93;8.10;;;-4.00;99.90;;;;;;5116777;28;20547;-85
2021/12/27 05:52:34;;;;;;;16.87;9.23;;;-4.00;99.90;;;;;;5098495;28;20233;-86
2021/12/27 05:54:59;;;;;;;12.30;7.27;;;-4.00;99.90;;;;;;5116776;28;20417;-86
2021/12/27 05:57:25;;;;;;;13.80;7.77;;;-3.90;1.00;;;;;;5098454;28;20176;-86
2021/12/27 05:59:50;;;;;;;12.43;7.20;;;-3.90;1.00;;;;;;5116587;28;20267;-85
2021/12/27 06:02:16;;;;;;;12.80;7.20;;;-3.90;1.00;;;;;;5117126;28;20179;-89
2021/12/27 06:04:42;;;;;;;15.90;7.03;;;-3.80;1.00;;;;;;5117491;28;20628;-90
2021/12/27 06:07:08;;;;;;;8.33;6.33;;;-3.80;1.00;;;;;;5117548;28;20160;-90
2021/12/27 06:09:33;;;;;;;11.20;8.27;;;-3.80;1.00;;;;;;5116923;28;20509;-89
2021/12/27 06:11:59;;;;;;;14.73;7.33;;;-3.80;1.00;;;;;;5117032;28;20195;-88
2021/12/27 06:14:24;;;;;;;14.97;9.27;;;-3.80;1.00;;;;;;5116869;28;20199;-88
2021/12/27 06:16:50;;;;;;;11.20;8.83;;;-3.70;1.00;;;;;;5116862;28;20187;-88
2021/12/27 06:19:17;;;;;;;21.50;11.27;;;-3.80;1.00;;;;;;5116276;28;20214;-88
2021/12/27 06:21:43;;;;;;;17.27;8.37;;;-3.70;1.00;;;;;;5098707;28;20175;-90
2021/12/27 06:24:08;;;;;;;15.97;9.33;;;-3.80;1.00;;;;;;5117248;28;20463;-90
2021/12/27 06:26:34;;;;;;;14.13;8.50;;;-3.80;1.00;;;;;;5098518;28;20168;-88
2021/12/27 06:28:59;;;;;;;19.50;8.93;;;-3.70;1.00;;;;;;5116021;28;20577;-88
2021/12/27 06:31:25;;;;;;;12.70;9.13;;;-3.80;1.00;;;;;;5098703;28;20188;-87
2021/12/27 06:33:51;;;;;;;13.67;8.50;;;-3.70;1.00;;;;;;5097339;28;20171;-86
2021/12/27 06:36:16;;;;;;;11.37;9.60;;;-3.70;1.00;;;;;;5115976;28;20172;-86
2021/12/27 06:38:42;;;;;;;13.90;8.47;;;-3.70;1.00;;;;;;5097318;28;20238;-86
2021/12/27 06:41:09;;;;;;;13.97;8.90;;;-3.70;1.00;;;;;;5115618;28;20184;-85
2021/12/27 06:43:34;;;;;;;22.00;8.57;;;-3.70;1.00;;;;;;5115849;28;20164;-85
2021/12/27 06:46:00;;;;;;;17.37;8.37;;;-3.80;1.00;;;;;;5115654;28;20421;-86
2021/12/27 06:48:27;;;;;;;14.53;10.13;;;-3.70;1.00;;;;;;5096935;28;20180;-84
2021/12/27 06:50:52;;;;;;;12.37;7.87;;;-3.70;1.00;;;;;;5115586;28;20450;-85
2021/12/27 06:53:18;;;;;;;13.20;8.77;;;-3.60;1.00;;;;;;5097514;28;20437;-85
2021/12/27 06:55:44;;;;;;;16.90;9.60;;;-3.70;1.00;;;;;;5097451;28;20179;-85
2021/12/27 06:58:10;;;;;;;15.97;9.13;;;-3.60;1.00;;;;;;5097482;28;20171;-86
2021/12/27 07:00:36;;;;;;;17.00;8.90;;;-3.60;1.00;;;;;;5097767;28;20425;-87
2021/12/27 07:03:01;;;;;;;12.93;7.10;;;-3.60;1.00;;;;;;5116566;28;20405;-86
2021/12/27 07:05:27;;;;;;;12.20;8.53;;;-3.60;1.00;;;;;;5096243;28;20168;-86
2021/12/27 07:07:53;;;;;;;13.30;8.73;;;-3.70;1.00;;;;;;5114554;28;20596;-86
2021/12/27 07:10:19;;;;;;;20.83;10.47;;;-3.80;1.00;;;;;;5115266;28;20187;-86
2021/12/27 07:12:45;;;;;;;13.33;9.60;;;-3.70;1.00;;;;;;5115315;28;20519;-87
2021/12/27 07:15:11;;;;;;;20.90;9.17;;;-3.80;1.00;;;;;;5115158;28;20932;-84
2021/12/27 07:17:37;;;;;;;16.83;11.50;;;-3.80;1.00;;;;;;5114716;28;20413;-86
2021/12/27 07:20:04;;;;;;;13.33;8.97;;;-3.80;1.00;;;;;;5114981;28;20488;-85
2021/12/27 07:22:30;;;;;;;22.37;12.30;;;-3.80;1.00;;;;;;5114987;28;20561;-85
2021/12/27 07:24:55;;;;;;;10.93;8.50;;;-3.70;1.00;;;;;;5114874;28;20435;-84
2021/12/27 07:27:21;;;;;;;14.03;9.60;;;-3.70;1.00;;;;;;5114880;28;20220;-85
2021/12/27 07:29:48;;;;;;;17.63;10.83;;;-3.70;1.00;;;;;;5096534;28;20172;-84
2021/12/27 07:32:14;;;;;;;19.00;11.60;;;-3.70;1.00;;;;;;5114548;28;20172;-84
2021/12/27 07:34:41;;;;;;;16.60;8.20;;;-3.70;1.00;;;;;;5096871;28;20944;-88
2021/12/27 07:37:07;;;;;;;18.00;10.00;;;-3.70;1.00;;;;;;5114905;28;20434;-87
2021/12/27 07:39:33;;;;;;;20.17;10.60;;;-3.70;1.00;;;;;;5114029;28;20457;-88
2021/12/27 07:41:59;;;;;;;19.53;9.97;;;-3.70;1.00;;;;;;5114891;28;20406;-88
2021/12/27 07:44:24;;;;;;;16.00;8.60;;;-3.70;1.00;;;;;;5114900;28;20448;-88
2021/12/27 07:46:51;;;;;;;19.80;10.20;;;-3.70;1.00;;;;;;5114376;28;20433;-88
2021/12/27 07:49:17;;;;;;;18.37;11.30;;;-3.60;1.00;;;;;;5114777;28;20161;-88
2021/12/27 07:51:44;;;;;;;16.70;11.07;;;-3.70;1.00;;;;;;5114611;28;20496;-87
2021/12/27 07:54:10;;;;;;;17.83;9.93;;;-3.70;1.00;;;;;;5096481;28;20415;-88
2021/12/27 07:56:37;;;;;;;13.57;9.70;;;-3.70;1.00;;;;;;5096318;28;20418;-87
2021/12/27 07:59:04;;;;;;;20.93;13.03;;;-3.60;1.00;;;;;;5114308;28;20203;-88
2021/12/27 08:01:34;;;;;;;13.77;9.63;;;-3.60;1.00;;;;;;5114429;28;20414;-87
2021/12/27 08:04:01;;;;;;;20.27;10.73;;;-3.60;1.00;;;;;;5096182;28;20413;-87
2021/12/27 08:06:27;;;;;;;20.00;11.67;;;-3.60;1.00;;;;;;5114343;28;20405;-87
2021/12/27 08:08:53;;;;;;;15.57;9.87;;;-3.50;1.00;;;;;;5096174;28;20513;-87
2021/12/27 08:11:19;;;;;;;21.17;11.20;;;-3.40;1.00;;;;;;5114224;28;20164;-87
2021/12/27 08:13:45;;;;;;;12.50;7.97;;;-3.40;1.00;;;;;;5095903;28;20805;-87
2021/12/27 08:16:11;;;;;;;21.40;9.33;;;-3.40;1.00;;;;;;5096078;28;20415;-87
2021/12/27 08:18:37;;;;;;;22.03;9.77;;;-3.30;1.00;;;;;;5113682;28;20227;-86
2021/12/27 08:21:03;;;;;;;16.43;10.17;;;-3.30;1.00;;;;;;5095944;28;21008;-86
2021/12/27 08:23:28;;;;;;;21.50;10.27;;;-3.30;1.00;;;;;;5095902;28;20262;-87
2021/12/27 08:25:54;;;;;;;19.53;11.00;;;-3.30;1.00;;;;;;5095734;28;20473;-87
2021/12/27 08:28:20;;;;;;;19.83;11.27;;;-3.20;1.00;;;;;;5095583;28;20199;-87
2021/12/27 08:30:45;;;;;;;14.30;8.20;;;-3.10;1.00;;;;;;5095607;28;20709;-86
2021/12/27 08:33:12;;;;;;;23.60;12.57;;;-3.10;1.00;;;;;;5095354;28;20525;-87
2021/12/27 08:35:37;;;;;;;14.67;8.63;;;-3.10;1.00;;;;;;5114043;28;20213;-88
2021/12/27 08:38:03;;;;;;;17.87;10.57;;;-3.20;1.00;;;;;;5095333;28;20457;-86
2021/12/27 08:40:30;;;;;;;27.90;13.10;;;-3.10;1.00;;;;;;5095530;28;20667;-88
2021/12/27 08:42:55;;;;;;;20.30;12.07;;;-2.90;1.00;;;;;;5095703;28;20773;-87
2021/12/27 08:45:21;;;;;;;14.27;11.00;;;-2.70;1.00;;;;;;5095433;28;20429;-87
2021/12/27 08:47:47;;;;;;;20.30;12.20;;;-2.70;1.00;;;;;;5113574;28;20170;-85
2021/12/27 08:50:17;;;;;;;18.50;11.13;;;-2.70;1.00;;;;;;5095369;28;20842;-87
2021/12/27 08:52:43;;;;;;;15.77;10.90;;;-2.80;1.00;;;;;;5095541;28;20417;-87
2021/12/27 08:55:09;;;;;;;27.53;13.13;;;-2.70;1.00;;;;;;5113699;28;20427;-88
2021/12/27 08:57:35;;;;;;;19.40;12.47;;;-2.60;1.00;;;;;;5113834;28;20829;-87
2021/12/27 09:00:04;;;;;;;14.77;10.80;;;-2.60;1.00;;;;;;5113573;28;20552;-88
2021/12/27 09:02:29;;;;;;;14.80;9.87;;;-2.70;1.00;;;;;;5113300;28;20169;-84
2021/12/27 09:04:55;;;;;;;20.00;10.13;;;-2.80;1.00;;;;;;5095494;28;20417;-83
2021/12/27 09:07:21;;;;;;;26.80;11.17;;;-2.90;1.00;;;;;;5113297;28;20172;-83
2021/12/27 09:09:46;;;;;;;19.70;11.63;;;-2.80;1.00;;;;;;5095167;28;20285;-83
2021/12/27 09:12:12;;;;;;;19.30;10.53;;;-2.90;1.00;;;;;;5095164;28;20175;-83
2021/12/27 09:14:39;;;;;;;18.67;11.20;;;-2.90;1.00;;;;;;5113366;28;20203;-83
2021/12/27 09:17:04;;;;;;;14.77;11.03;;;-2.80;1.00;;;;;;5094745;28;20417;-83
2021/12/27 09:19:30;;;;;;;18.50;9.67;;;-2.80;1.00;;;;;;5113065;28;21017;-83
2021/12/27 09:21:56;;;;;;;22.03;11.73;;;-2.80;1.00;;;;;;5113165;28;20163;-83
2021/12/27 09:24:22;;;;;;;18.90;9.73;;;-2.90;1.00;;;;;;5113281;28;20168;-85
2021/12/27 09:26:48;;;;;;;14.70;11.00;;;-2.80;1.00;;;;;;5113250;28;20972;-82
2021/12/27 09:29:14;;;;;;;20.33;11.90;;;-2.70;1.00;;;;;;5113236;28;20418;-87
2021/12/27 09:31:40;;;;;;;22.03;12.17;;;-2.80;1.00;;;;;;5094709;28;20428;-85
2021/12/27 09:34:06;;;;;;;17.87;12.87;;;-2.70;1.00;;;;;;5113130;28;20419;-83
2021/12/27 09:36:31;;;;;;;14.13;7.47;;;-2.60;1.00;;;;;;5113068;28;20256;-83
2021/12/27 09:38:57;;;;;;;23.53;12.33;;;-2.80;1.00;;;;;;5112162;28;20560;-83
2021/12/27 09:41:25;;;;;;;14.90;9.23;;;-2.60;1.00;;;;;;5097997;28;20182;-83
2021/12/27 09:43:51;;;;;;;20.53;10.70;;;-2.60;1.00;;;;;;5104646;28;20634;-83
2021/12/27 09:46:18;;;;;;;16.97;11.00;;;-2.50;1.00;;;;;;5112683;28;20510;-83
2021/12/27 09:48:44;;;;;;;22.23;12.50;;;-2.60;1.00;;;;;;5113050;28;20497;-83
2021/12/27 09:51:10;;;;;;;22.57;15.27;;;-2.60;1.00;;;;;;5108110;28;20506;-83
2021/12/27 09:53:37;;;;;;;18.50;9.30;;;-2.60;1.00;;;;;;5092582;28;20831;-83
2021/12/27 09:56:07;;;;;;;16.97;12.23;;;-2.60;1.00;;;;;;5094910;28;20466;-83
2021/12/27 09:58:32;;;;;;;19.40;11.73;;;-2.50;1.00;;;;;;5084788;28;20475;-83
2021/12/27 10:01:02;;;;;;;17.50;11.90;;;-2.40;1.00;;;;;;5094603;28;20462;-83
2021/12/27 10:03:28;;;;;;;20.60;12.73;;;-2.50;1.00;;;;;;5094736;28;20161;-82
2021/12/27 10:05:54;;;;;;;20.30;11.93;;;-2.60;1.00;;;;;;5077898;28;20786;-83
2021/12/27 10:08:19;;;;;;;23.17;14.57;;;-2.50;1.00;;;;;;5096033;28;20233;-83
2021/12/27 10:10:46;;;;;;;23.10;12.80;;;-2.50;1.00;;;;;;5096080;28;20231;-83
2021/12/27 10:13:12;;;;;;;20.87;11.10;;;-2.50;1.00;;;;;;5095949;28;20170;-83
2021/12/27 10:15:40;;;;;;;20.67;11.93;;;-2.40;1.00;;;;;;5104705;28;20448;-83
2021/12/27 10:18:15;;;;;;;18.13;10.50;;;-2.50;1.00;;;;;;5097674;28;20309;-83
2021/12/27 10:20:41;;;;;;;22.33;13.23;;;-2.40;1.00;;;;;;5116227;28;20788;-83
2021/12/27 10:23:08;;;;;;;26.80;14.83;;;-2.40;1.00;;;;;;5116229;28;20402;-83
2021/12/27 10:25:34;;;;;;;24.80;14.60;;;-2.50;1.00;;;;;;5116042;28;20432;-83
2021/12/27 10:28:01;;;;;;;19.40;13.10;;;-2.40;9.10;;;;;;5116034;28;20408;-83
2021/12/27 10:30:32;;;;;;;23.17;14.40;;;-2.40;1.00;;;;;;5116072;28;20216;-83
2021/12/27 10:33:08;;;;;;;14.57;9.43;;;-2.40;7.80;;;;;;5112138;28;20425;-83
2021/12/27 10:35:42;;;;;;;25.30;12.90;;;-2.40;1.00;;;;;;5115416;28;20848;-83
2021/12/27 10:38:23;;;;;;;22.20;13.23;;;-2.30;1.00;;;;;;5096956;28;21022;-83
2021/12/27 10:40:54;;;;;;;24.70;15.43;;;-2.20;1.00;;;;;;5115287;28;20784;-83
2021/12/27 10:43:41;;;;;;;28.40;15.13;;;-2.20;1.00;;;;;;5115413;28;20490;-83
2021/12/27 10:46:15;;;;;;;24.43;13.70;;;-2.10;1.00;;;;;;5113199;28;20498;-83
2021/12/27 10:48:55;;;;;;;23.70;15.50;;;-2.10;1.00;;;;;;5115510;28;20421;-83
2021/12/27 10:51:21;;;;;;;35.30;17.23;;;-2.20;1.00;;;;;;5106803;28;21019;-84
2021/12/27 10:54:01;;;;;;;18.77;11.70;;;-2.10;1.00;;;;;;5078436;28;20782;-86
2021/12/27 10:56:47;;;;;;;17.47;13.20;;;-2.00;1.00;;;;;;5111333;28;20414;-82
2021/12/27 10:59:18;;;;;;;27.83;15.10;;;-2.00;1.00;;;;;;5115081;28;20465;-82
2021/12/27 11:01:47;;;;;;;21.60;12.27;;;-1.90;1.00;;;;;;5094723;28;20412;-83
2021/12/27 11:04:17;;;;;;;22.43;12.03;;;-1.90;1.00;;;;;;5095004;28;20813;-83
2021/12/27 11:06:42;;;;;;;25.00;13.80;;;-1.80;1.00;;;;;;5094816;28;20421;-82
2021/12/27 11:09:09;;;;;;;23.53;13.50;;;-1.70;1.00;;;;;;5093720;28;20489;-82
2021/12/27 11:11:35;;;;;;;20.03;12.23;;;-1.80;1.00;;;;;;5093359;28;20472;-83
2021/12/27 11:14:01;;;;;;;20.53;12.80;;;-1.90;1.00;;;;;;5094644;28;20903;-82
2021/12/27 11:16:28;;;;;;;22.93;14.63;;;-1.90;1.00;;;;;;5094227;28;20485;-83
2021/12/27 11:18:58;;;;;;;26.87;16.03;;;-1.90;1.00;;;;;;5094608;28;20303;-82
2021/12/27 11:21:50;;;;;;;25.73;15.60;;;-1.90;6.50;;;;;;5094683;28;20420;-83
2021/12/27 11:24:18;;;;;;;17.40;12.00;;;-1.90;12.30;;;;;;5094841;28;20455;-82
2021/12/27 11:26:44;;;;;;;21.03;12.93;;;-1.80;1.00;;;;;;5094604;28;20803;-82
2021/12/27 11:29:15;;;;;;;26.57;15.03;;;-1.90;4.30;;;;;;5094469;28;20487;-83
2021/12/27 11:31:42;;;;;;;21.20;13.60;;;-1.80;22.30;;;;;;5094181;28;20171;-82
2021/12/27 11:34:12;;;;;;;25.47;16.00;;;-1.80;1.00;;;;;;5076207;28;20415;-82
2021/12/27 11:36:52;;;;;;;28.83;14.60;;;-1.80;1.90;;;;;;5094367;28;20946;-82
2021/12/27 11:39:18;;;;;;;24.93;14.40;;;-1.80;10.10;;;;;;5094118;28;20572;-82
2021/12/27 11:41:44;;;;;;;20.67;12.40;;;-1.80;4.80;;;;;;5076103;28;20509;-82
2021/12/27 11:44:17;;;;;;;23.57;12.57;;;-1.70;2.30;;;;;;5076022;28;20182;-82
2021/12/27 11:46:49;;;;;;;27.10;13.70;;;-1.60;11.50;;;;;;5093774;28;20415;-83
2021/12/27 11:49:17;;;;;;;17.97;12.80;;;-1.70;4.50;;;;;;5094100;28;20500;-82
2021/12/27 11:51:46;;;;;;;26.97;13.33;;;-1.70;1.00;;;;;;5094024;28;20422;-82
2021/12/27 11:54:29;;;;;;;24.30;13.13;;;-1.70;11.70;;;;;;5094005;28;20416;-83
2021/12/27 11:56:55;;;;;;;29.80;16.40;;;-1.60;26.00;;;;;;5093935;28;20418;-82
2021/12/27 11:59:36;;;;;;;22.90;13.63;;;-1.60;10.20;;;;;;5093871;28;20453;-82
2021/12/27 12:02:23;;;;;;;27.13;15.07;;;-1.50;8.50;;;;;;5093543;28;20428;-82
2021/12/27 12:04:51;;;;;;;24.97;13.23;;;-1.50;4.50;;;;;;5093733;28;20533;-82
2021/12/27 12:07:35;;;;;;;27.17;14.77;;;-1.60;3.70;;;;;;5093781;28;20399;-82
2021/12/27 12:10:06;;;;;;;33.53;16.23;;;-1.50;14.00;;;;;;5093669;28;20405;-82
2021/12/27 12:12:33;;;;;;;25.80;16.20;;;-1.50;11.90;;;;;;5093724;28;20410;-82
2021/12/27 12:15:01;;;;;;;30.43;14.57;;;-1.40;4.00;;;;;;5093660;28;20493;-82
2021/12/27 12:17:37;;;;;;;26.67;14.03;;;-1.40;1.00;;;;;;5093367;28;20437;-82
2021/12/27 12:20:03;;;;;;;22.20;13.93;;;-1.40;16.50;;;;;;5093462;28;20536;-82
2021/12/27 12:22:35;;;;;;;21.00;13.83;;;-1.40;18.90;;;;;;5093677;28;20897;-82
2021/12/27 12:25:16;;;;;;;23.33;13.77;;;-1.30;22.50;;;;;;5093011;28;20415;-83
2021/12/27 12:28:00;;;;;;;24.43;13.90;;;-1.30;10.40;;;;;;5093518;28;20420;-83
2021/12/27 12:30:33;;;;;;;28.77;15.53;;;-1.20;11.80;;;;;;5093450;28;20408;-83
2021/12/27 12:33:13;;;;;;;31.30;14.73;;;-1.20;3.10;;;;;;5092838;28;20409;-82
2021/12/27 12:35:41;;;;;;;26.97;16.10;;;-1.30;16.10;;;;;;5093424;28;20936;-83
2021/12/27 12:38:27;;;;;;;30.60;17.63;;;-1.20;16.90;;;;;;5093065;28;20453;-82
2021/12/27 12:41:01;;;;;;;24.23;16.93;;;-1.10;24.60;;;;;;5093349;28;20426;-82
2021/12/27 12:43:43;;;;;;;30.90;17.00;;;-1.20;39.10;;;;;;5075428;28;21038;-83
2021/12/27 12:46:20;;;;;;;19.10;12.53;;;-1.30;53.70;;;;;;5092933;28;20421;-82
2021/12/27 12:48:59;;;;;;;23.40;14.53;;;-1.30;54.80;;;;;;5094023;28;20887;-82
2021/12/27 12:51:34;;;;;;;26.43;17.20;;;-1.20;51.60;;;;;;5094236;28;20483;-83